createdAt,value
2023-02-27T00:00:03.951Z,82.12
2023-02-27T00:02:31.476Z,82.48
2023-02-27T00:04:58.975Z,82.74
2023-02-27T00:07:28.676Z,82.51
2023-02-27T00:09:56.174Z,83.08
2023-02-27T00:12:23.593Z,82.65
2023-02-27T00:14:51.333Z,82.99
2023-02-27T00:17:18.819Z,82.98
2023-02-27T00:19:46.247Z,83.51
2023-02-27T00:22:13.728Z,83.38
2023-02-27T00:24:42.566Z,83.44
2023-02-27T00:27:10.002Z,83.84
2023-02-27T00:29:37.509Z,83.63
2023-02-27T00:32:05.071Z,84.10
2023-02-27T00:34:32.603Z,84.55
2023-02-27T00:37:00.109Z,84.57
2023-02-27T00:39:27.614Z,85.31
2023-02-27T00:41:56.413Z,85.09
2023-02-27T00:44:23.914Z,85.21
2023-02-27T00:46:51.503Z,85.31
2023-02-27T00:49:19.678Z,85.41
2023-02-27T00:51:47.497Z,85.80
2023-02-27T00:54:15.057Z,85.95
2023-02-27T00:56:42.524Z,86.04
2023-02-27T00:59:11.444Z,85.78
2023-02-27T01:01:38.891Z,85.88
2023-02-27T01:04:06.431Z,86.34
2023-02-27T01:06:34.036Z,86.30
2023-02-27T01:09:01.561Z,86.27
2023-02-27T01:11:29.092Z,86.32
2023-02-27T01:13:56.965Z,86.75
2023-02-27T01:16:25.995Z,86.48
2023-02-27T01:18:53.492Z,86.50
2023-02-27T01:21:21.078Z,87.05
2023-02-27T01:23:48.562Z,87.07
2023-02-27T01:26:16.015Z,86.75
2023-02-27T01:28:46.991Z,87.23
2023-02-27T01:31:14.564Z,87.37
2023-02-27T01:33:43.440Z,87.25
2023-02-27T01:36:11.531Z,87.50
2023-02-27T01:38:38.964Z,88.10
2023-02-27T01:41:07.470Z,87.88
2023-02-27T01:43:35.705Z,88.47
2023-02-27T01:46:03.242Z,88.31
2023-02-27T01:48:34.464Z,88.89
2023-02-27T01:51:08.188Z,88.79
2023-02-27T01:53:37.665Z,89.10
2023-02-27T01:56:15.850Z,89.32
2023-02-27T01:58:44.266Z,89.88
2023-02-27T02:01:11.954Z,89.39
2023-02-27T02:03:44.958Z,89.38
2023-02-27T02:06:14.424Z,89.73
2023-02-27T02:08:45.175Z,90.07
2023-02-27T02:11:14.203Z,90.14
2023-02-27T02:13:42.864Z,90.22
2023-02-27T02:16:26.519Z,90.08
2023-02-27T02:19:02.767Z,90.06
2023-02-27T02:22:17.989Z,90.55
2023-02-27T02:25:19.437Z,90.59
2023-02-27T02:27:58.947Z,90.56
2023-02-27T02:30:57.995Z,90.13
2023-02-27T02:34:13.255Z,90.60
2023-02-27T02:37:31.492Z,90.30
2023-02-27T02:40:20.061Z,90.59
2023-02-27T02:42:54.960Z,91.13
2023-02-27T02:45:30.522Z,90.97
2023-02-27T02:48:10.412Z,91.14
2023-02-27T02:50:49.169Z,91.29
2023-02-27T02:53:36.634Z,91.64
2023-02-27T02:56:11.862Z,92.13
2023-02-27T02:58:49.610Z,92.62
2023-02-27T03:01:18.739Z,92.78
2023-02-27T03:03:50.754Z,92.70
2023-02-27T03:06:24.300Z,93.02
2023-02-27T03:08:56.272Z,93.32
2023-02-27T03:11:29.718Z,93.85
2023-02-27T03:14:07.708Z,93.50
2023-02-27T03:16:41.006Z,93.01
2023-02-27T03:19:13.246Z,93.00
2023-02-27T03:21:47.158Z,93.26
2023-02-27T03:24:21.498Z,92.88
2023-02-27T03:26:54.808Z,93.20
2023-02-27T03:29:31.293Z,93.18
2023-02-27T03:32:04.083Z,92.78
2023-02-27T03:34:34.951Z,93.17
2023-02-27T03:37:07.643Z,93.28
2023-02-27T03:39:45.871Z,93.46
2023-02-27T03:42:24.583Z,93.63
2023-02-27T03:44:59.093Z,93.40
2023-02-27T03:47:28.753Z,93.53
2023-02-27T03:49:56.738Z,93.68
2023-02-27T03:52:26.920Z,93.81
2023-02-27T03:54:59.785Z,93.72
2023-02-27T03:57:29.249Z,93.63
2023-02-27T03:59:56.850Z,93.69
2023-02-27T04:02:24.404Z,93.94
2023-02-27T04:04:51.900Z,93.80
2023-02-27T04:07:27.706Z,93.75
2023-02-27T04:10:18.809Z,94.28
2023-02-27T04:13:04.076Z,94.18
2023-02-27T04:15:47.064Z,94.62
2023-02-27T04:18:25.936Z,94.54
2023-02-27T04:20:59.042Z,95.24
2023-02-27T04:23:35.555Z,94.96
2023-02-27T04:26:17.027Z,95.18
2023-02-27T04:28:49.489Z,95.80
2023-02-27T04:31:24.604Z,96.00
2023-02-27T04:34:00.018Z,96.17
2023-02-27T04:36:31.776Z,96.09
2023-02-27T04:39:05.086Z,96.40
2023-02-27T04:41:38.988Z,96.44
2023-02-27T04:44:11.348Z,96.49
2023-02-27T04:46:42.226Z,96.34
2023-02-27T04:49:14.103Z,96.51
2023-02-27T04:51:51.170Z,96.54
2023-02-27T04:54:23.780Z,96.75
2023-02-27T04:56:54.728Z,97.27
2023-02-27T04:59:26.838Z,97.04
2023-02-27T05:01:58.952Z,97.35
2023-02-27T05:04:30.118Z,97.27
2023-02-27T05:07:00.505Z,97.10
2023-02-27T05:09:35.010Z,97.10
2023-02-27T05:12:06.821Z,97.29
2023-02-27T05:14:40.087Z,97.23
2023-02-27T05:17:10.486Z,96.87
2023-02-27T05:19:41.376Z,97.05
2023-02-27T05:22:20.722Z,97.39
2023-02-27T05:24:54.228Z,97.04
2023-02-27T05:27:30.717Z,97.04
2023-02-27T05:30:04.326Z,97.66
2023-02-27T05:32:38.158Z,97.92
2023-02-27T05:35:14.278Z,97.75
2023-02-27T05:37:46.794Z,97.88
2023-02-27T05:40:20.143Z,98.19
2023-02-27T05:42:54.532Z,98.22
2023-02-27T05:45:26.383Z,98.05
2023-02-27T05:48:01.710Z,98.44
2023-02-27T05:50:32.172Z,98.16
2023-02-27T05:53:04.186Z,97.85
2023-02-27T05:55:36.369Z,97.96
2023-02-27T05:58:09.546Z,97.98
2023-02-27T06:00:41.915Z,98.76
2023-02-27T06:03:09.497Z,98.81
2023-02-27T06:05:37.891Z,98.63
2023-02-27T06:08:05.384Z,98.33
2023-02-27T06:10:33.347Z,98.06
2023-02-27T06:13:00.853Z,98.43
2023-02-27T06:15:28.402Z,97.95
2023-02-27T06:17:57.797Z,98.01
2023-02-27T06:20:25.258Z,97.88
2023-02-27T06:22:52.675Z,97.89
2023-02-27T06:25:21.881Z,97.73
2023-02-27T06:27:49.490Z,97.57
2023-02-27T06:30:17.491Z,97.14
2023-02-27T06:32:45.021Z,97.77
2023-02-27T06:35:13.820Z,97.54
2023-02-27T06:37:41.282Z,97.85
2023-02-27T06:40:11.392Z,97.96
2023-02-27T06:42:38.922Z,97.97
2023-02-27T06:45:07.482Z,97.85
2023-02-27T06:47:35.037Z,97.43
2023-02-27T06:50:03.508Z,97.29
2023-02-27T06:52:32.282Z,96.85
2023-02-27T06:54:59.713Z,96.74
2023-02-27T06:57:27.230Z,96.56
2023-02-27T06:59:54.728Z,96.12
2023-02-27T07:02:23.650Z,95.41
2023-02-27T07:04:51.208Z,95.19
2023-02-27T07:07:34.500Z,95.57
2023-02-27T07:10:07.218Z,95.07
2023-02-27T07:12:34.742Z,95.36
2023-02-27T07:15:02.248Z,95.09
2023-02-27T07:17:29.976Z,94.79
2023-02-27T07:19:57.390Z,95.75
2023-02-27T07:22:24.961Z,94.32
2023-02-27T07:24:52.373Z,93.35
2023-02-27T07:27:21.210Z,92.90
2023-02-27T07:29:48.886Z,93.17
2023-02-27T07:32:16.446Z,94.28
2023-02-27T07:34:43.925Z,94.71
2023-02-27T07:37:11.337Z,93.77
2023-02-27T07:39:39.274Z,94.64
2023-02-27T07:42:07.011Z,93.45
2023-02-27T07:44:35.816Z,91.67
2023-02-27T07:47:03.419Z,91.06
2023-02-27T07:49:30.893Z,90.22
2023-02-27T07:51:58.312Z,89.98
2023-02-27T07:54:26.786Z,89.80
2023-02-27T07:56:54.225Z,89.13
2023-02-27T07:59:21.717Z,88.92
2023-02-27T08:01:50.459Z,89.87
2023-02-27T08:04:17.893Z,89.22
2023-02-27T08:06:45.593Z,88.71
2023-02-27T08:09:13.045Z,88.47
2023-02-27T08:11:40.494Z,89.41
2023-02-27T08:14:08.017Z,88.43
2023-02-27T08:16:35.663Z,88.72
2023-02-27T08:19:04.898Z,87.81
2023-02-27T08:21:32.317Z,87.94
2023-02-27T08:23:59.786Z,87.14
2023-02-27T08:26:27.563Z,86.27
2023-02-27T08:28:55.318Z,86.05
2023-02-27T08:31:23.463Z,87.40
2023-02-27T08:33:58.065Z,86.17
2023-02-27T08:36:36.643Z,86.04
2023-02-27T08:39:04.223Z,86.61
2023-02-27T08:41:31.695Z,86.08
2023-02-27T08:43:59.143Z,85.23
2023-02-27T08:46:27.121Z,84.86
2023-02-27T08:48:54.796Z,85.24
2023-02-27T08:51:22.458Z,85.55
2023-02-27T08:53:51.272Z,83.73
2023-02-27T08:56:18.698Z,83.52
2023-02-27T08:58:46.157Z,82.67
2023-02-27T09:03:41.333Z,81.69
2023-02-27T09:06:09.123Z,81.53
2023-02-27T09:08:36.630Z,81.40
2023-02-27T09:11:06.593Z,80.12
2023-02-27T09:13:34.025Z,80.87
2023-02-27T09:16:01.464Z,81.11
2023-02-27T09:18:29.095Z,79.56
2023-02-27T09:20:56.910Z,79.54
2023-02-27T09:23:24.323Z,80.94
2023-02-27T09:25:51.859Z,80.21
2023-02-27T09:28:21.636Z,80.72
2023-02-27T09:30:49.088Z,80.32
2023-02-27T09:33:16.523Z,80.59
2023-02-27T09:35:44.229Z,81.17
2023-02-27T09:38:13.638Z,79.70
2023-02-27T09:40:44.327Z,79.98
2023-02-27T09:43:16.853Z,79.02
2023-02-27T09:45:48.456Z,79.62
2023-02-27T09:48:25.077Z,79.52
2023-02-27T09:50:52.946Z,79.90
2023-02-27T09:53:26.761Z,77.82
2023-02-27T09:55:58.282Z,78.05
2023-02-27T09:58:37.666Z,78.13
2023-02-27T10:01:11.374Z,77.44
2023-02-27T10:04:11.081Z,75.92
2023-02-27T10:06:44.436Z,77.45
2023-02-27T10:09:29.734Z,76.41
2023-02-27T10:12:23.815Z,75.86
2023-02-27T10:14:56.576Z,75.28
2023-02-27T10:17:29.966Z,76.09
2023-02-27T10:19:59.266Z,75.54
2023-02-27T10:22:31.438Z,76.04
2023-02-27T10:25:03.845Z,75.64
2023-02-27T10:27:32.201Z,75.58
2023-02-27T10:30:27.305Z,76.27
2023-02-27T10:33:06.317Z,76.05
2023-02-27T10:35:36.133Z,75.83
2023-02-27T10:38:07.474Z,76.73
2023-02-27T10:40:37.148Z,75.66
2023-02-27T10:43:07.058Z,75.30
2023-02-27T10:45:34.675Z,75.05
2023-02-27T10:48:04.040Z,74.94
2023-02-27T10:50:34.369Z,73.92
2023-02-27T10:53:05.040Z,73.86
2023-02-27T10:55:34.978Z,74.91
2023-02-27T10:58:04.304Z,73.22
2023-02-27T11:00:41.604Z,75.32
2023-02-27T11:03:20.824Z,76.04
2023-02-27T11:05:55.750Z,74.72
2023-02-27T11:08:26.056Z,74.80
2023-02-27T11:10:59.602Z,73.07
2023-02-27T11:13:29.303Z,73.77
2023-02-27T11:16:13.374Z,74.72
2023-02-27T11:18:44.265Z,73.03
2023-02-27T11:21:15.669Z,73.84
2023-02-27T11:23:52.225Z,73.46
2023-02-27T11:26:24.695Z,73.29
2023-02-27T11:29:11.504Z,72.49
2023-02-27T11:31:40.771Z,72.56
2023-02-27T11:34:28.130Z,71.93
2023-02-27T11:37:00.882Z,71.25
2023-02-27T11:39:32.797Z,69.75
2023-02-27T11:42:08.947Z,70.92
2023-02-27T11:44:50.886Z,70.13
2023-02-27T11:47:25.116Z,69.40
2023-02-27T11:50:29.489Z,70.82
2023-02-27T11:53:08.275Z,70.86
2023-02-27T11:55:37.519Z,70.27
2023-02-27T11:58:12.777Z,69.95
2023-02-27T12:00:45.397Z,69.19
2023-02-27T12:03:21.717Z,69.76
2023-02-27T12:05:54.065Z,71.23
2023-02-27T12:08:31.305Z,70.14
2023-02-27T12:11:13.749Z,70.21
2023-02-27T12:13:44.547Z,69.25
2023-02-27T12:16:19.917Z,70.25
2023-02-27T12:18:53.059Z,66.73
2023-02-27T12:21:25.106Z,68.11
2023-02-27T12:23:57.486Z,67.34
2023-02-27T12:26:30.199Z,67.79
2023-02-27T12:29:03.166Z,66.37
2023-02-27T12:31:51.227Z,67.71
2023-02-27T12:34:27.149Z,66.60
2023-02-27T12:37:01.661Z,67.39
2023-02-27T12:39:29.725Z,67.44
2023-02-27T12:42:14.539Z,66.39
2023-02-27T12:45:06.030Z,66.54
2023-02-27T12:47:41.243Z,67.42
2023-02-27T12:50:15.980Z,66.49
2023-02-27T12:53:02.725Z,65.72
2023-02-27T12:55:32.724Z,65.68
2023-02-27T12:58:22.071Z,64.07
2023-02-27T13:00:52.517Z,63.10
2023-02-27T13:03:25.062Z,63.86
2023-02-27T13:06:01.675Z,64.61
2023-02-27T13:08:48.287Z,65.39
2023-02-27T13:11:24.384Z,64.49
2023-02-27T13:13:57.880Z,64.74
2023-02-27T13:16:32.108Z,64.70
2023-02-27T13:19:06.039Z,63.79
2023-02-27T13:21:39.664Z,63.23
2023-02-27T13:24:25.709Z,64.72
2023-02-27T13:26:59.840Z,64.19
2023-02-27T13:29:34.917Z,64.41
2023-02-27T13:32:14.691Z,64.35
2023-02-27T13:34:45.534Z,63.08
2023-02-27T13:37:13.007Z,63.82
2023-02-27T13:39:53.624Z,63.43
2023-02-27T13:42:56.416Z,64.19
2023-02-27T13:45:56.222Z,63.65
2023-02-27T13:48:45.047Z,63.33
2023-02-27T13:51:45.823Z,63.01
2023-02-27T13:54:21.257Z,61.97
2023-02-27T13:56:52.047Z,61.34
2023-02-27T13:59:23.568Z,61.21
2023-02-27T14:01:54.508Z,62.07
2023-02-27T14:04:26.150Z,61.17
2023-02-27T14:07:00.868Z,60.63
2023-02-27T14:09:35.118Z,60.07
2023-02-27T14:12:07.238Z,59.82
2023-02-27T14:14:44.243Z,59.71
2023-02-27T14:17:14.282Z,61.13
2023-02-27T14:19:59.701Z,59.20
2023-02-27T14:22:40.987Z,59.15
2023-02-27T14:25:19.765Z,59.21
2023-02-27T14:27:57.078Z,58.17
2023-02-27T14:30:30.082Z,58.37
2023-02-27T14:33:01.763Z,58.69
2023-02-27T14:35:31.046Z,58.09
2023-02-27T14:38:10.666Z,56.71
2023-02-27T14:40:48.306Z,56.27
2023-02-27T14:43:29.577Z,55.59
2023-02-27T14:46:05.407Z,55.36
2023-02-27T14:48:33.724Z,54.09
2023-02-27T14:51:02.717Z,55.05
2023-02-27T14:53:30.517Z,54.84
2023-02-27T14:56:00.274Z,53.66
2023-02-27T14:58:29.356Z,54.55
2023-02-27T15:01:08.463Z,55.64
2023-02-27T15:03:41.789Z,55.77
2023-02-27T15:06:18.936Z,54.62
2023-02-27T15:08:49.393Z,54.07
2023-02-27T15:11:19.150Z,54.60
2023-02-27T15:13:50.620Z,56.02
2023-02-27T15:16:29.662Z,53.62
2023-02-27T15:18:59.086Z,54.81
2023-02-27T15:21:30.414Z,54.97
2023-02-27T15:23:59.373Z,55.84
2023-02-27T15:26:29.907Z,56.18
2023-02-27T15:28:59.811Z,57.54
2023-02-27T15:31:31.098Z,58.37
2023-02-27T15:34:01.205Z,59.14
2023-02-27T15:36:31.566Z,58.17
2023-02-27T15:39:08.458Z,58.56
2023-02-27T15:41:37.013Z,58.69
2023-02-27T15:44:06.279Z,59.12
2023-02-27T15:46:34.020Z,58.21
2023-02-27T15:49:01.597Z,58.46
2023-02-27T15:51:29.966Z,58.31
2023-02-27T15:54:01.058Z,58.85
2023-02-27T15:56:33.462Z,58.55
2023-02-27T15:59:02.077Z,57.52
2023-02-27T16:01:34.782Z,57.07
2023-02-27T16:04:06.045Z,57.76
2023-02-27T16:06:35.954Z,56.38
2023-02-27T16:09:05.853Z,55.62
2023-02-27T16:11:35.133Z,56.92
2023-02-27T16:14:02.786Z,56.62
2023-02-27T16:16:35.309Z,58.01
2023-02-27T16:19:15.563Z,56.32
2023-02-27T16:22:04.762Z,56.50
2023-02-27T16:24:33.426Z,57.37
2023-02-27T16:27:01.756Z,58.40
2023-02-27T16:29:34.579Z,58.88
2023-02-27T16:32:04.635Z,57.59
2023-02-27T16:34:45.193Z,58.80
2023-02-27T16:37:21.564Z,57.79
2023-02-27T16:39:51.602Z,56.94
2023-02-27T16:42:19.187Z,57.70
2023-02-27T16:44:47.049Z,57.96
2023-02-27T16:47:15.835Z,58.05
2023-02-27T16:49:44.303Z,57.65
2023-02-27T16:52:12.554Z,58.05
2023-02-27T16:54:39.992Z,56.80
2023-02-27T16:57:07.810Z,56.02
2023-02-27T16:59:37.109Z,57.02
2023-02-27T17:02:06.603Z,56.37
2023-02-27T17:04:36.089Z,56.01
2023-02-27T17:07:06.508Z,56.88
2023-02-27T17:09:35.005Z,56.76
2023-02-27T17:12:02.430Z,55.72
2023-02-27T17:14:29.865Z,55.95
2023-02-27T17:16:59.517Z,56.42
2023-02-27T17:19:26.998Z,56.34
2023-02-27T17:21:55.780Z,55.71
2023-02-27T17:24:23.564Z,56.44
2023-02-27T17:26:52.476Z,57.45
2023-02-27T17:29:20.112Z,57.09
2023-02-27T17:31:47.688Z,56.74
2023-02-27T17:34:16.622Z,57.55
2023-02-27T17:36:44.370Z,57.38
2023-02-27T17:39:14.857Z,57.19
2023-02-27T17:41:43.642Z,57.99
2023-02-27T17:44:11.942Z,58.58
2023-02-27T17:46:40.376Z,57.62
2023-02-27T17:49:09.428Z,58.23
2023-02-27T17:51:36.860Z,58.71
2023-02-27T17:54:05.879Z,58.31
2023-02-27T17:56:36.948Z,59.13
2023-02-27T17:59:04.739Z,59.22
2023-02-27T18:01:32.293Z,59.40
2023-02-27T18:03:59.759Z,61.42
2023-02-27T18:06:27.757Z,60.64
2023-02-27T18:08:55.762Z,60.17
2023-02-27T18:11:23.656Z,59.43
2023-02-27T18:13:52.540Z,60.13
2023-02-27T18:16:21.850Z,60.56
2023-02-27T18:18:49.663Z,60.50
2023-02-27T18:21:20.045Z,60.25
2023-02-27T18:23:49.185Z,60.38
2023-02-27T18:26:30.348Z,60.81
2023-02-27T18:29:02.290Z,60.34
2023-02-27T18:31:32.257Z,60.29
2023-02-27T18:34:00.175Z,60.71
2023-02-27T18:36:28.301Z,61.00
2023-02-27T18:38:56.017Z,60.19
2023-02-27T18:41:23.808Z,61.21
2023-02-27T18:43:51.431Z,60.67
2023-02-27T18:46:20.649Z,60.06
2023-02-27T18:48:48.521Z,61.32
2023-02-27T18:51:17.270Z,60.81
2023-02-27T18:53:52.948Z,61.00
2023-02-27T18:56:23.482Z,60.43
2023-02-27T18:58:51.297Z,60.99
2023-02-27T19:01:22.670Z,61.36
2023-02-27T19:03:51.361Z,61.48
2023-02-27T19:06:19.085Z,60.88
2023-02-27T19:08:48.639Z,62.26
2023-02-27T19:11:23.022Z,61.70
2023-02-27T19:13:52.033Z,61.95
2023-02-27T19:16:23.246Z,62.27
2023-02-27T19:18:50.949Z,62.62
2023-02-27T19:21:18.892Z,62.47
2023-02-27T19:23:46.518Z,62.53
2023-02-27T19:26:14.281Z,62.98
2023-02-27T19:28:41.913Z,63.03
2023-02-27T19:31:10.877Z,62.76
2023-02-27T19:33:40.879Z,63.36
2023-02-27T19:36:10.408Z,63.48
2023-02-27T19:38:38.137Z,64.71
2023-02-27T19:41:07.206Z,64.57
2023-02-27T19:43:35.884Z,63.91
2023-02-27T19:46:06.566Z,64.94
2023-02-27T19:48:34.514Z,64.68
2023-02-27T19:51:06.619Z,64.48
2023-02-27T19:53:36.432Z,64.36
2023-02-27T19:56:06.739Z,64.83
2023-02-27T19:58:36.561Z,64.94
2023-02-27T20:01:04.542Z,65.37
2023-02-27T20:03:32.502Z,65.74
2023-02-27T20:06:06.315Z,65.80
2023-02-27T20:08:34.415Z,66.94
2023-02-27T20:11:04.360Z,66.46
2023-02-27T20:13:32.354Z,66.54
2023-02-27T20:16:02.288Z,66.92
2023-02-27T20:18:30.728Z,67.03
2023-02-27T20:21:03.111Z,67.63
2023-02-27T20:23:36.362Z,68.09
2023-02-27T20:26:13.729Z,67.51
2023-02-27T20:28:41.411Z,68.04
2023-02-27T20:31:10.118Z,68.03
2023-02-27T20:33:38.031Z,68.46
2023-02-27T20:36:07.069Z,68.66
2023-02-27T20:38:39.005Z,69.00
2023-02-27T20:41:07.415Z,68.88
2023-02-27T20:43:37.591Z,68.96
2023-02-27T20:46:05.905Z,69.40
2023-02-27T20:48:34.537Z,69.16
2023-02-27T20:51:06.553Z,69.79
2023-02-27T20:53:36.620Z,69.38
2023-02-27T20:56:05.414Z,69.62
2023-02-27T20:58:33.662Z,70.29
2023-02-27T21:01:05.677Z,70.37
2023-02-27T21:03:38.447Z,70.28
2023-02-27T21:06:08.171Z,70.64
2023-02-27T21:08:37.504Z,71.07
2023-02-27T21:11:09.777Z,70.67
2023-02-27T21:13:37.908Z,70.73
2023-02-27T21:16:07.352Z,70.68
2023-02-27T21:18:35.120Z,70.92
2023-02-27T21:21:04.611Z,70.86
2023-02-27T21:23:32.288Z,71.05
2023-02-27T21:26:01.246Z,71.16
2023-02-27T21:28:28.901Z,71.34
2023-02-27T21:30:56.485Z,71.99
2023-02-27T21:33:24.130Z,71.82
2023-02-27T21:35:51.765Z,71.83
2023-02-27T21:38:19.396Z,72.00
2023-02-27T21:40:48.972Z,72.35
2023-02-27T21:43:17.951Z,72.87
2023-02-27T21:45:49.970Z,73.25
2023-02-27T21:48:17.479Z,73.33
2023-02-27T21:50:50.772Z,72.79
2023-02-27T21:53:18.382Z,73.05
2023-02-27T21:55:45.910Z,73.59
2023-02-27T21:58:13.421Z,74.00
2023-02-27T22:00:43.102Z,74.25
2023-02-27T22:03:10.768Z,74.21
2023-02-27T22:05:41.127Z,74.18
2023-02-27T22:08:08.828Z,74.41
2023-02-27T22:10:42.800Z,73.96
2023-02-27T22:13:10.421Z,74.11
2023-02-27T22:15:38.130Z,74.64
2023-02-27T22:18:07.105Z,74.50
2023-02-27T22:20:34.659Z,74.92
2023-02-27T22:23:04.516Z,75.28
2023-02-27T22:25:32.597Z,75.02
2023-02-27T22:28:02.990Z,75.38
2023-02-27T22:30:31.223Z,75.49
2023-02-27T22:32:58.754Z,75.34
2023-02-27T22:35:27.748Z,75.98
2023-02-27T22:37:55.355Z,76.16
2023-02-27T22:40:22.826Z,76.22
2023-02-27T22:42:50.229Z,76.57
2023-02-27T22:45:17.810Z,76.45
2023-02-27T22:47:45.244Z,76.54
2023-02-27T22:50:14.128Z,76.89
2023-02-27T22:52:42.858Z,76.38
2023-02-27T22:55:10.891Z,76.56
2023-02-27T22:57:38.309Z,77.39
2023-02-27T23:00:09.607Z,77.04
2023-02-27T23:02:41.646Z,77.81
2023-02-27T23:05:10.082Z,77.59
2023-02-27T23:07:37.497Z,77.72
2023-02-27T23:10:09.746Z,77.89
2023-02-27T23:12:37.262Z,77.94
2023-02-27T23:15:05.204Z,78.23
2023-02-27T23:17:33.091Z,78.64
2023-02-27T23:20:00.560Z,78.41
2023-02-27T23:22:33.229Z,78.82
2023-02-27T23:25:03.322Z,78.60
2023-02-27T23:27:32.114Z,79.39
2023-02-27T23:29:59.520Z,79.72
2023-02-27T23:32:26.952Z,80.07
2023-02-27T23:34:54.362Z,80.85
2023-02-27T23:37:21.762Z,80.81
2023-02-27T23:39:49.162Z,81.01
2023-02-27T23:42:16.555Z,81.17
2023-02-27T23:45:03.142Z,81.85
2023-02-27T23:47:43.516Z,82.31
2023-02-27T23:50:12.866Z,82.58
2023-02-27T23:52:40.308Z,81.99
2023-02-27T23:55:08.941Z,82.01
2023-02-27T23:57:36.368Z,82.32
